Time;durP1;ratioP1;P1;durP2;ratioP2;P2;SDS_P1;SDS_P2;PMS_P1;PMS_P2;Temp;Humidity;BMP_temperature;BMP_pressure;BME280_temperature;BME280_humidity;BME280_pressure;Samples;Min_cycle;Max_cycle;Signal;HPM_P1;HPM_P2
2023/08/18 00:00:54;;;;;;;3.75;3.55;;;20.60;99.90;;;21.05;95.45;101711.50;5063489;28;20059;-68
2023/08/18 00:03:23;;;;;;;4.18;3.78;;;20.70;99.90;;;20.96;94.96;101711.81;5068187;28;20048;-68
2023/08/18 00:05:51;;;;;;;2.40;2.30;;;20.70;99.90;;;21.14;95.12;101711.19;5064239;28;20494;-68
2023/08/18 00:08:19;;;;;;;5.30;4.60;;;20.80;99.90;;;21.10;94.79;101709.56;5064561;28;20048;-68
2023/08/18 00:10:49;;;;;;;4.57;4.22;;;20.80;99.90;;;20.84;95.06;101712.22;5060854;28;20122;-68
2023/08/18 00:13:18;;;;;;;3.00;2.90;;;20.60;99.90;;;21.05;95.34;101716.91;5063415;28;20045;-68
2023/08/18 00:15:46;;;;;;;2.35;2.25;;;20.70;99.90;;;21.10;94.69;101713.13;5061671;28;20306;-68
2023/08/18 00:18:15;;;;;;;2.60;2.50;;;20.80;99.90;;;21.18;94.34;101713.75;5062510;28;20041;-68
2023/08/18 00:20:44;;;;;;;3.20;3.10;;;20.90;99.90;;;21.00;94.03;101700.00;5062442;28;20071;-68
2023/08/18 00:23:12;;;;;;;3.10;3.00;;;20.80;99.90;;;21.13;94.04;101704.06;5062361;28;20500;-68
2023/08/18 00:25:40;;;;;;;4.32;4.13;;;20.90;99.90;;;21.12;93.96;101696.91;5063475;28;20076;-68
2023/08/18 00:28:11;;;;;;;3.05;2.95;;;20.80;99.90;;;21.19;93.75;101698.47;5060952;28;20528;-68
2023/08/18 00:30:39;;;;;;;3.70;3.50;;;20.90;99.90;;;21.23;93.09;101700.13;5064517;28;20037;-68
2023/08/18 00:33:07;;;;;;;2.67;2.58;;;21.00;99.90;;;21.11;93.32;101695.16;5064348;28;20048;-68
2023/08/18 00:35:36;;;;;;;2.72;2.63;;;20.90;99.90;;;21.20;92.89;101694.84;5063750;28;20401;-67
2023/08/18 00:38:05;;;;;;;2.55;2.45;;;20.90;99.90;;;21.12;93.41;101688.84;5061036;28;20045;-68
2023/08/18 00:40:33;;;;;;;3.08;2.97;;;20.80;99.90;;;21.10;93.31;101698.81;5062870;28;20083;-68
2023/08/18 00:43:01;;;;;;;2.85;2.75;;;20.80;99.90;;;21.16;93.21;101688.69;5061926;28;20103;-68
2023/08/18 00:45:31;;;;;;;5.43;5.03;;;20.90;99.90;;;21.03;92.51;101703.50;5068656;28;20452;-68
2023/08/18 00:47:59;;;;;;;3.10;3.00;;;20.80;99.90;;;20.69;94.00;101692.94;5075108;28;20132;-69
2023/08/18 00:50:28;;;;;;;3.30;3.20;;;20.50;99.90;;;20.89;94.61;101686.91;5061841;28;20051;-68
2023/08/18 00:52:59;;;;;;;3.42;3.33;;;20.50;99.90;;;21.12;94.24;101687.03;5060603;28;20057;-68
2023/08/18 00:55:29;;;;;;;3.40;3.15;;;20.70;99.90;;;21.22;92.87;101687.59;5064115;28;20045;-68
2023/08/18 00:57:59;;;;;;;2.78;2.67;;;20.90;99.90;;;21.27;92.69;101693.72;5062898;28;20185;-68
2023/08/18 01:00:28;;;;;;;3.17;3.08;;;21.00;99.90;;;21.16;92.11;101694.06;5073647;28;20048;-68
2023/08/18 01:02:59;;;;;;;3.43;3.33;;;20.90;99.90;;;21.18;91.96;101697.59;5061961;28;20552;-68
2023/08/18 01:05:27;;;;;;;2.88;2.78;;;21.00;99.90;;;21.19;92.32;101682.31;5068184;28;20413;-68
2023/08/18 01:07:56;;;;;;;2.92;2.83;;;20.90;99.90;;;21.22;91.59;101692.97;5063864;28;20048;-68
2023/08/18 01:10:26;;;;;;;2.78;2.67;;;20.90;99.90;;;21.19;91.92;101693.97;5064711;28;20124;-68
2023/08/18 01:13:02;;;;;;;2.78;2.67;;;20.90;99.90;;;21.27;91.63;101701.78;5068120;28;20071;-68
2023/08/18 01:15:36;;;;;;;3.40;3.30;;;21.00;99.90;;;20.72;91.37;101592.47;5065502;28;20059;-68
2023/08/18 01:18:08;;;;;;;2.90;2.80;;;21.00;99.90;;;20.82;92.46;101689.84;5065407;28;20058;-68
2023/08/18 01:20:38;;;;;;;2.97;2.78;;;20.70;99.90;;;20.73;93.34;101687.50;5067217;28;20497;-67
2023/08/18 01:23:09;;;;;;;2.90;2.80;;;20.50;99.90;;;21.01;93.20;101712.56;5074748;28;20488;-68
2023/08/18 01:25:39;;;;;;;2.65;2.55;;;20.60;99.90;;;21.08;92.70;101684.53;5064625;28;20041;-68
2023/08/18 01:28:07;;;;;;;2.75;2.65;;;20.70;99.90;;;21.20;92.18;101686.75;5066484;28;20115;-68
2023/08/18 01:30:41;;;;;;;2.80;2.70;;;20.90;99.90;;;21.28;91.63;101682.00;5065649;28;20383;-68
2023/08/18 01:33:17;;;;;;;2.95;2.85;;;21.00;99.90;;;21.28;91.13;101668.53;5064903;28;20049;-68
2023/08/18 01:35:46;;;;;;;2.38;2.28;;;21.00;99.90;;;21.33;90.79;101664.75;5067705;28;20055;-68
2023/08/18 01:38:17;;;;;;;2.58;2.47;;;21.10;99.90;;;21.47;90.53;101672.31;5067418;28;20047;-68
2023/08/18 01:40:48;;;;;;;2.80;2.70;;;21.10;99.90;;;21.43;89.75;101663.47;5065262;28;20049;-68
2023/08/18 01:43:17;;;;;;;2.50;2.40;;;21.20;99.90;;;21.49;89.46;101667.75;5065876;28;20056;-68
2023/08/18 01:45:45;;;;;;;2.95;2.85;;;21.20;99.90;;;21.53;89.01;101674.78;5061913;28;20041;-68
2023/08/18 01:48:14;;;;;;;2.70;2.60;;;21.20;99.90;;;21.52;88.88;101675.75;5073414;28;20052;-68
2023/08/18 01:50:44;;;;;;;2.80;2.70;;;21.20;99.90;;;21.40;88.70;101662.72;5064320;28;20059;-68
2023/08/18 01:53:12;;;;;;;2.50;2.40;;;21.20;99.90;;;21.52;88.50;101673.06;5062616;28;20147;-68
2023/08/18 01:55:43;;;;;;;25.02;3.22;;;21.20;99.90;;;21.41;88.20;101661.78;5062870;28;20037;-68
2023/08/18 01:58:10;;;;;;;2.50;2.40;;;21.10;99.90;;;20.83;88.53;101581.38;5073564;28;20053;-68
2023/08/18 02:00:39;;;;;;;3.47;3.38;;;21.10;99.90;;;21.26;88.19;101667.72;5060300;28;20053;-68
2023/08/18 02:03:08;;;;;;;2.58;2.47;;;21.00;99.90;;;21.28;88.00;101661.34;5080706;28;20045;-68
2023/08/18 02:05:39;;;;;;;2.70;2.60;;;21.00;99.90;;;21.20;88.41;101662.53;5065579;28;20489;-68
2023/08/18 02:08:08;;;;;;;2.72;2.63;;;20.90;99.90;;;20.85;89.00;101655.66;5066770;28;20291;-68
2023/08/18 02:10:36;;;;;;;3.85;3.65;;;20.70;99.90;;;20.78;89.48;101654.13;5070813;28;20044;-68
2023/08/18 02:13:06;;;;;;;2.47;2.38;;;20.50;99.90;;;20.92;89.51;101650.97;5067149;28;20099;-68
2023/08/18 02:15:34;;;;;;;2.88;2.78;;;20.60;99.90;;;21.04;89.17;101650.59;5074062;28;20462;-67
2023/08/18 02:18:04;;;;;;;2.65;2.55;;;20.70;99.90;;;21.00;88.71;101648.91;5059146;28;20045;-68
2023/08/18 02:20:32;;;;;;;2.88;2.78;;;20.70;99.90;;;21.00;88.77;101648.91;5064167;28;20045;-68
2023/08/18 02:23:01;;;;;;;3.22;3.13;;;20.70;99.90;;;20.88;88.94;101638.56;5071420;28;20049;-68
2023/08/18 02:25:30;;;;;;;2.85;2.75;;;20.60;99.90;;;20.97;88.92;101649.88;5064033;28;20044;-68
2023/08/18 02:27:59;;;;;;;2.72;2.63;;;20.70;99.90;;;21.16;88.97;101647.44;5063731;28;20048;-68
2023/08/18 02:30:29;;;;;;;2.83;2.72;;;20.80;99.90;;;21.25;88.62;101641.75;5064857;28;20045;-68
2023/08/18 02:32:58;;;;;;;;;;;20.90;99.90;;;21.29;88.15;101646.94;5063087;28;20048;-69
2023/08/18 02:35:26;;;;;;;2.75;2.65;;;21.00;99.90;;;21.29;87.94;101641.56;5064476;28;20281;-68
2023/08/18 02:37:54;;;;;;;3.15;3.05;;;21.00;99.90;;;21.30;87.57;101626.28;5053940;28;20144;-68
2023/08/18 02:40:24;;;;;;;2.70;2.60;;;21.00;99.90;;;21.23;87.40;101625.66;5060619;28;20048;-68
2023/08/18 02:42:52;;;;;;;2.67;2.53;;;21.00;99.90;;;21.29;87.33;101621.88;5058595;28;20126;-68
2023/08/18 02:45:21;;;;;;;2.70;2.60;;;21.00;99.90;;;21.23;86.80;101620.28;5064114;28;20109;-68
2023/08/18 02:47:51;;;;;;;2.63;2.53;;;21.00;99.90;;;21.14;86.68;101614.31;5063604;28;20041;-68
2023/08/18 02:50:19;;;;;;;3.00;2.90;;;20.90;99.90;;;21.06;87.38;101611.06;5070184;28;20059;-68
2023/08/18 02:52:48;;;;;;;2.80;2.70;;;20.80;99.90;;;20.90;87.43;101602.59;5076681;28;20065;-68
2023/08/18 02:55:16;;;;;;;2.78;2.67;;;20.70;99.90;;;20.98;87.56;101596.94;5063409;28;20789;-68
2023/08/18 02:57:45;;;;;;;2.85;2.75;;;20.70;99.90;;;20.90;87.53;101599.91;5069228;28;20184;-68
2023/08/18 03:00:15;;;;;;;2.60;2.50;;;20.70;99.90;;;20.69;88.35;101604.22;5065099;28;20109;-68
2023/08/18 03:02:43;;;;;;;2.47;2.38;;;20.50;99.90;;;20.77;88.55;101601.25;5062009;28;20060;-68
2023/08/18 03:05:13;;;;;;;2.60;2.50;;;20.50;99.90;;;20.93;88.14;101605.16;5064730;28;20045;-68
2023/08/18 03:07:41;;;;;;;3.38;3.20;;;20.60;99.90;;;20.72;88.42;101602.34;5058296;28;20540;-68
2023/08/18 03:10:10;;;;;;;3.83;3.58;;;20.50;99.90;;;20.25;90.44;101610.19;5062937;28;20052;-68
2023/08/18 03:12:39;;;;;;;2.60;2.50;;;20.10;99.90;;;20.23;91.70;101601.31;5069935;28;20049;-68
2023/08/18 03:15:08;;;;;;;2.80;2.70;;;19.90;99.90;;;20.45;91.15;101601.47;5063935;28;20049;-68
2023/08/18 03:17:37;;;;;;;3.78;3.58;;;20.10;99.90;;;20.09;92.52;101603.50;5061854;28;20102;-68
2023/08/18 03:20:07;;;;;;;3.00;2.90;;;19.80;99.90;;;19.95;93.49;101594.13;5076700;28;20045;-68
2023/08/18 03:22:37;;;;;;;3.33;3.15;;;19.70;99.90;;;19.43;96.26;101605.56;5031402;28;1082109;-68
2023/08/18 03:25:07;;;;;;;2.80;2.70;;;19.20;99.90;;;19.31;98.92;101604.09;5054458;28;20074;-68
2023/08/18 03:27:35;;;;;;;2.60;2.50;;;19.00;99.90;;;19.05;97.91;101520.78;5054109;28;20290;-68
2023/08/18 03:30:05;;;;;;;3.40;3.30;;;19.20;99.90;;;19.39;98.48;101628.06;5062409;28;20445;-68
2023/08/18 03:32:34;;;;;;;3.65;3.45;;;19.00;99.90;;;19.23;99.20;101622.19;5064598;28;20052;-68
2023/08/18 03:35:02;;;;;;;3.33;3.10;;;18.90;99.90;;;19.12;100.00;101601.97;5070014;28;20052;-68
2023/08/18 03:37:31;;;;;;;3.67;3.47;;;18.80;99.90;;;19.22;100.00;101600.78;5063672;28;20059;-68
2023/08/18 03:40:03;;;;;;;3.05;2.95;;;18.80;99.90;;;19.46;100.00;101605.47;5069093;28;20135;-68
2023/08/18 03:42:31;;;;;;;2.95;2.85;;;19.00;99.90;;;19.63;99.68;101598.69;5062161;28;20053;-68
2023/08/18 03:45:00;;;;;;;3.05;2.95;;;19.30;99.90;;;19.82;98.90;101604.41;5064964;28;20036;-68
2023/08/18 03:47:29;;;;;;;2.90;2.80;;;19.40;99.90;;;19.84;97.81;101569.44;5058564;28;20063;-68
2023/08/18 03:49:58;;;;;;;2.72;2.63;;;19.60;99.90;;;20.09;97.38;101595.44;5068366;28;20102;-68
2023/08/18 03:52:27;;;;;;;3.45;3.35;;;19.80;99.90;;;20.13;96.20;101594.41;5070242;28;20044;-68
2023/08/18 03:54:55;;;;;;;2.50;2.40;;;19.90;99.90;;;20.17;95.92;101603.28;5063697;28;20517;-68
2023/08/18 03:57:25;;;;;;;2.92;2.83;;;19.90;99.90;;;20.09;95.68;101600.81;5062425;28;20060;-68
2023/08/18 03:59:55;;;;;;;3.17;3.07;;;19.90;99.90;;;20.03;95.95;101598.34;5064798;28;20044;-68
2023/08/18 04:02:24;;;;;;;3.65;3.45;;;19.80;99.90;;;20.15;95.40;101602.47;5072228;28;20461;-68
2023/08/18 04:04:54;;;;;;;2.78;2.67;;;19.90;99.90;;;20.19;95.77;101604.16;5065884;28;20041;-68
2023/08/18 04:07:23;;;;;;;3.42;3.22;;;19.90;99.90;;;20.29;95.12;101605.59;5079713;28;20040;-68
2023/08/18 04:09:51;;;;;;;2.88;2.78;;;20.00;99.90;;;20.33;94.75;101608.13;5062493;28;20075;-68
2023/08/18 04:12:20;;;;;;;2.80;2.70;;;20.10;99.90;;;20.40;94.45;101612.38;5070078;28;20048;-68
2023/08/18 04:14:50;;;;;;;3.25;3.05;;;20.10;99.90;;;20.38;93.96;101603.47;5058894;28;20060;-68
2023/08/18 04:17:18;;;;;;;4.05;3.75;;;20.10;99.90;;;20.47;93.58;101613.06;5079402;28;20056;-68
2023/08/18 04:19:47;;;;;;;3.10;3.00;;;20.20;99.90;;;20.50;93.41;101616.53;5068444;28;20037;-68
2023/08/18 04:22:16;;;;;;;3.15;2.97;;;20.20;99.90;;;20.13;94.06;101612.38;5076343;28;20052;-68
2023/08/18 04:24:44;;;;;;;2.65;2.55;;;20.00;99.90;;;20.07;95.17;101620.63;5051817;28;20055;-68
2023/08/18 04:27:13;;;;;;;2.72;2.63;;;19.80;99.90;;;20.24;94.75;101621.88;5068488;28;20140;-68
2023/08/18 04:29:42;;;;;;;3.00;2.90;;;19.90;99.90;;;19.77;96.04;101609.00;5068419;28;20045;-68
2023/08/18 04:32:11;;;;;;;2.50;2.40;;;19.60;99.90;;;19.86;97.55;101611.41;5059702;28;20056;-68
2023/08/18 04:34:41;;;;;;;4.03;3.67;;;19.50;99.90;;;19.93;96.42;101612.09;5061452;28;20449;-68
2023/08/18 04:37:09;;;;;;;3.08;2.97;;;19.70;99.90;;;20.05;96.54;101618.00;5069426;28;20048;-69
2023/08/18 04:39:38;;;;;;;2.67;2.58;;;19.70;99.90;;;20.07;96.23;101609.88;5059090;28;20057;-69
2023/08/18 04:42:07;;;;;;;2.65;2.55;;;19.80;99.90;;;19.99;96.36;101583.25;5062655;28;20047;-68
2023/08/18 04:44:36;;;;;;;3.15;3.05;;;19.80;99.90;;;20.12;96.65;101614.16;5068563;28;20053;-67
2023/08/18 04:47:06;;;;;;;2.67;2.58;;;19.80;99.90;;;20.23;96.22;101609.34;5068220;28;20106;-69
2023/08/18 04:49:36;;;;;;;2.60;2.50;;;19.90;99.90;;;20.34;95.43;101607.19;5062926;28;20053;-69
2023/08/18 04:52:05;;;;;;;2.80;2.70;;;20.00;99.90;;;20.25;95.20;101591.38;5067376;28;20048;-68
2023/08/18 04:54:33;;;;;;;3.03;2.92;;;20.10;99.90;;;20.20;95.02;101604.09;5058094;28;20045;-69
2023/08/18 04:57:03;;;;;;;3.10;3.00;;;20.00;99.90;;;19.94;95.73;101606.69;5062845;28;20045;-68
2023/08/18 04:59:32;;;;;;;2.85;2.75;;;19.80;99.90;;;19.90;97.20;101613.06;5068884;28;20045;-68
2023/08/18 05:02:04;;;;;;;2.60;2.50;;;19.60;99.90;;;20.07;96.74;101602.72;5059470;28;20041;-69
2023/08/18 05:04:32;;;;;;;3.22;3.03;;;19.80;99.90;;;20.12;96.32;101608.81;5076799;28;20048;-68
2023/08/18 05:07:03;;;;;;;3.20;3.03;;;19.80;99.90;;;20.14;95.94;101604.25;5052714;28;20167;-68
2023/08/18 05:09:34;;;;;;;2.97;2.88;;;19.90;99.90;;;20.06;95.97;101603.63;5052419;28;20068;-68
2023/08/18 05:12:03;;;;;;;6.93;3.70;;;19.80;99.90;;;20.09;95.99;101590.06;5052605;28;20132;-69
2023/08/18 05:14:31;;;;;;;4.20;3.92;;;19.80;99.90;;;19.95;95.72;101604.88;5053669;28;20329;-68
2023/08/18 05:16:59;;;;;;;2.78;2.67;;;19.80;99.90;;;19.82;96.48;101596.34;5063964;28;20076;-68
2023/08/18 05:19:28;;;;;;;2.80;2.70;;;19.60;99.90;;;19.91;96.94;101604.09;5062306;28;20049;-68
2023/08/18 05:21:56;;;;;;;4.40;4.00;;;19.60;99.90;;;19.79;96.60;101602.69;5060812;28;20045;-67
2023/08/18 05:24:26;;;;;;;3.42;3.22;;;19.60;99.90;;;19.69;96.71;101592.25;5059053;28;20045;-68
2023/08/18 05:26:55;;;;;;;3.57;3.37;;;19.50;99.90;;;19.46;98.25;101592.06;5052112;28;20073;-68
2023/08/18 05:29:23;;;;;;;3.47;3.25;;;19.30;99.90;;;19.18;100.00;101593.75;5052036;28;20564;-68
2023/08/18 05:31:51;;;;;;;4.32;4.10;;;19.00;99.90;;;19.44;100.00;101591.22;5052052;28;20124;-68
2023/08/18 05:34:20;;;;;;;3.17;2.92;;;19.10;99.90;;;19.24;100.00;101583.72;5053278;28;20049;-68
2023/08/18 05:36:50;;;;;;;5.75;4.50;;;19.00;99.90;;;19.10;100.00;101590.41;5062423;28;20635;-68
2023/08/18 05:39:18;;;;;;;2.93;2.83;;;18.80;99.90;;;19.08;100.00;101595.81;5062283;28;20071;-68
2023/08/18 05:41:48;;;;;;;7.78;5.32;;;18.80;99.90;;;18.91;100.00;101590.03;5061473;28;20048;-68
2023/08/18 05:44:16;;;;;;;3.20;3.00;;;18.60;99.90;;;19.10;100.00;101595.75;5063211;28;20052;-68
2023/08/18 05:46:44;;;;;;;2.95;2.85;;;18.70;99.90;;;19.18;100.00;101583.03;5060791;28;20291;-68
2023/08/18 05:49:13;;;;;;;3.00;2.90;;;18.80;99.90;;;19.37;100.00;101585.16;5059004;28;20045;-68
2023/08/18 05:51:44;;;;;;;5.82;4.70;;;19.00;99.90;;;19.00;100.00;101586.19;5067797;28;20053;-68
2023/08/18 05:54:12;;;;;;;3.78;3.58;;;18.90;99.90;;;19.21;100.00;101589.16;5053802;28;20068;-68
2023/08/18 05:56:41;;;;;;;3.13;3.03;;;18.90;99.90;;;19.07;100.00;101590.47;5055564;28;20072;-68
2023/08/18 05:59:11;;;;;;;3.90;3.70;;;18.80;99.90;;;18.85;100.00;101585.69;5061064;28;20037;-68
2023/08/18 06:01:39;;;;;;;3.50;3.30;;;18.60;99.90;;;18.95;100.00;101578.28;5065762;28;20107;-68
2023/08/18 06:04:08;;;;;;;4.47;4.07;;;18.60;99.90;;;18.68;100.00;101585.25;5064749;28;20053;-68
2023/08/18 06:06:37;;;;;;;3.95;3.75;;;18.40;99.90;;;18.91;100.00;101585.53;5066643;28;20052;-68
2023/08/18 06:09:05;;;;;;;5.63;4.80;;;18.60;99.90;;;18.65;100.00;101592.50;5063830;28;20099;-68
2023/08/18 06:11:34;;;;;;;2.95;2.85;;;18.40;99.90;;;18.67;100.00;101590.66;5062541;28;20494;-68
2023/08/18 06:14:02;;;;;;;3.13;3.03;;;18.30;99.90;;;18.83;100.00;101587.53;5079372;28;20067;-68
2023/08/18 06:16:32;;;;;;;3.78;3.53;;;18.40;99.90;;;18.59;100.00;101581.94;5066481;28;20101;-68
2023/08/18 06:19:00;;;;;;;4.23;3.97;;;18.30;99.90;;;18.52;100.00;101583.91;5064939;28;20401;-68
2023/08/18 06:21:28;;;;;;;4.40;4.05;;;18.20;99.90;;;18.60;100.00;101573.84;5065691;28;20337;-68
2023/08/18 06:23:57;;;;;;;8.18;5.43;;;18.20;99.90;;;18.44;100.00;101585.03;5061069;28;20067;-68
2023/08/18 06:26:25;;;;;;;6.88;5.10;;;18.20;99.90;;;18.36;100.00;101587.88;5071724;28;20041;-68
2023/08/18 06:28:54;;;;;;;6.43;4.78;;;18.00;99.90;;;18.38;100.00;101583.34;5064588;28;20040;-68
2023/08/18 06:31:22;;;;;;;6.05;5.45;;;18.00;99.90;;;18.49;100.00;101599.16;5066765;28;20080;-68
2023/08/18 06:33:52;;;;;;;3.95;3.75;;;18.20;99.90;;;18.50;100.00;101590.22;5063895;28;20124;-68
2023/08/18 06:36:20;;;;;;;2.90;2.80;;;18.10;99.90;;;18.73;100.00;101591.41;5055565;28;20051;-68
2023/08/18 06:38:48;;;;;;;4.63;4.32;;;18.30;99.90;;;18.72;100.00;101586.06;5055817;28;20768;-68
2023/08/18 06:41:17;;;;;;;3.20;3.10;;;18.40;99.90;;;19.03;100.00;101589.66;5055421;28;20483;-68
2023/08/18 06:43:45;;;;;;;3.22;3.13;;;18.60;99.90;;;19.23;100.00;101590.00;5059262;28;20040;-68
2023/08/18 06:46:16;;;;;;;4.30;3.95;;;18.90;99.90;;;19.12;100.00;101586.75;5064448;28;20114;-72
2023/08/18 06:48:44;;;;;;;;;;;18.90;99.90;;;19.19;100.00;101596.38;5064801;28;20131;-69
2023/08/18 06:51:14;;;;;;;3.15;3.05;;;18.90;99.90;;;19.33;100.00;101588.88;5065281;28;19925;-69
2023/08/18 06:53:43;;;;;;;3.05;2.95;;;19.00;99.90;;;19.45;100.00;101575.06;5063494;28;20052;-69
2023/08/18 06:56:11;;;;;;;2.78;2.67;;;19.10;99.90;;;19.34;100.00;101585.25;5066068;28;20040;-69
2023/08/18 06:58:39;;;;;;;4.75;4.35;;;19.10;99.90;;;19.39;100.00;101587.81;5074148;28;20056;-68
2023/08/18 07:01:07;;;;;;;4.68;4.07;;;19.10;99.90;;;19.28;100.00;101589.88;5054282;28;20041;-68
2023/08/18 07:03:36;;;;;;;4.82;4.43;;;19.10;99.90;;;18.95;100.00;101586.31;5069924;28;20115;-71
2023/08/18 07:06:05;;;;;;;6.43;4.93;;;18.70;99.90;;;19.02;100.00;101584.34;5053265;28;20044;-70
2023/08/18 07:08:36;;;;;;;2.75;2.65;;;18.70;99.90;;;19.43;100.00;101581.44;5054197;28;20521;-72
2023/08/18 07:11:04;;;;;;;;;;;19.00;99.90;;;19.44;100.00;101577.81;5062821;28;20054;-76
2023/08/18 07:13:32;;;;;;;4.25;3.95;;;19.10;99.90;;;19.43;100.00;101584.09;5064535;28;19931;-70
2023/08/18 07:16:02;;;;;;;4.53;4.22;;;19.10;99.90;;;19.50;100.00;101581.19;5063254;28;20052;-69
2023/08/18 07:18:30;;;;;;;3.05;2.95;;;19.20;99.90;;;19.79;100.00;101585.69;5065500;28;20070;-70
2023/08/18 07:20:59;;;;;;;3.08;2.97;;;19.40;99.90;;;20.00;100.00;101576.94;5062177;28;20072;-69
2023/08/18 07:23:28;;;;;;;2.90;2.80;;;19.70;99.90;;;20.11;100.00;101580.16;5062767;28;20483;-68
2023/08/18 07:25:58;;;;;;;3.88;3.65;;;19.80;99.90;;;20.37;100.00;101582.91;5065800;28;20114;-68
2023/08/18 07:28:26;;;;;;;;;;;20.00;99.90;;;20.45;99.07;101574.59;5059271;28;20499;-70
2023/08/18 07:30:55;;;;;;;3.47;3.30;;;20.20;99.90;;;20.48;98.81;101559.25;5063490;28;19947;-68
2023/08/18 07:33:23;;;;;;;3.80;3.60;;;20.30;99.90;;;20.71;99.48;101576.41;5063739;28;20072;-73
2023/08/18 07:35:52;;;;;;;3.42;3.33;;;20.40;99.90;;;20.85;97.60;101550.75;5064614;28;20053;-70
2023/08/18 07:38:20;;;;;;;5.47;5.07;;;20.60;99.90;;;20.90;95.98;101577.50;5062849;28;20044;-68
2023/08/18 07:40:48;;;;;;;5.40;3.83;;;20.70;99.90;;;20.72;96.92;101565.59;5064625;28;20103;-71
2023/08/18 07:43:18;;;;;;;3.10;3.00;;;20.50;99.90;;;21.19;95.38;101561.22;5062495;28;20102;-68
2023/08/18 07:45:47;;;;;;;2.97;2.78;;;20.80;99.90;;;21.47;94.24;101557.44;5053532;28;20402;-68
2023/08/18 07:48:15;;;;;;;4.90;4.50;;;21.10;99.90;;;21.40;94.30;101552.34;5053873;28;20041;-68
2023/08/18 07:50:43;;;;;;;6.45;3.83;;;21.10;99.90;;;20.98;93.98;101557.44;5053595;28;20143;-68
2023/08/18 07:53:12;;;;;;;7.15;5.75;;;20.80;99.90;;;20.37;97.00;101550.66;5057292;28;20461;-68
2023/08/18 07:55:41;;;;;;;4.25;3.90;;;20.20;99.90;;;20.54;97.87;101564.41;5062738;28;20044;-68
2023/08/18 07:58:09;;;;;;;4.85;4.53;;;20.20;99.90;;;20.92;96.56;101560.38;5078999;28;20551;-68
2023/08/18 08:00:43;;;;;;;5.43;4.93;;;20.40;99.90;;;21.22;94.89;101567.38;5063656;28;20041;-68
2023/08/18 08:03:15;;;;;;;3.00;2.80;;;20.80;99.90;;;21.73;94.26;101572.59;5061787;28;20045;-68
2023/08/18 08:05:50;;;;;;;2.70;2.60;;;21.30;99.90;;;21.80;90.87;101568.75;5053329;28;20065;-67
2023/08/18 08:08:23;;;;;;;3.05;2.95;;;21.50;99.90;;;22.04;89.88;101574.97;5053159;28;20171;-67
2023/08/18 08:10:53;;;;;;;3.35;3.15;;;21.70;99.90;;;22.10;88.68;101562.13;5053076;28;20049;-69
2023/08/18 08:13:22;;;;;;;2.80;2.70;;;21.90;99.90;;;22.52;88.71;101561.28;5056188;28;20044;-64
2023/08/18 08:15:52;;;;;;;6.40;3.05;;;22.20;99.90;;;22.39;88.03;101569.91;5061273;28;20426;-64
2023/08/18 08:18:20;;;;;;;6.13;5.40;;;22.20;99.90;;;22.39;88.01;101563.63;5056552;28;20122;-64
2023/08/18 08:20:49;;;;;;;3.70;3.50;;;22.10;99.90;;;22.55;88.08;101563.84;5061427;28;20164;-62
2023/08/18 08:23:17;;;;;;;3.97;3.67;;;22.20;99.90;;;22.67;85.71;101572.31;5063678;28;20128;-63
2023/08/18 08:25:47;;;;;;;2.70;2.60;;;22.40;99.90;;;22.83;86.09;101554.53;5062110;28;20044;-63
2023/08/18 08:28:15;;;;;;;4.18;3.78;;;22.60;99.90;;;23.01;84.24;101574.44;5063398;28;20052;-63
2023/08/18 08:30:46;;;;;;;10.90;6.25;;;22.80;99.90;;;22.23;86.49;101578.66;5063354;28;20076;-63
2023/08/18 08:33:16;;;;;;;2.85;2.75;;;22.10;99.90;;;22.57;88.26;101575.50;5061739;28;20485;-63
2023/08/18 08:35:45;;;;;;;4.63;4.32;;;22.20;99.90;;;22.31;87.10;101588.22;5064298;28;20045;-63
2023/08/18 08:38:13;;;;;;;6.47;5.75;;;22.10;99.90;;;21.87;88.59;101582.84;5060636;28;20454;-63
2023/08/18 08:40:42;;;;;;;2.92;2.83;;;21.70;99.90;;;21.87;90.45;101572.09;5052610;28;20103;-63
2023/08/18 08:43:11;;;;;;;4.63;4.18;;;21.60;99.90;;;22.12;89.65;101586.34;5068084;28;20053;-63
2023/08/18 08:45:40;;;;;;;6.30;5.80;;;21.80;99.90;;;21.72;89.88;101603.13;5052449;28;20449;-62
2023/08/18 08:48:12;;;;;;;3.17;2.97;;;21.50;99.90;;;22.09;89.76;101597.22;5058493;28;20044;-63
2023/08/18 08:50:55;;;;;;;2.78;2.67;;;21.70;99.90;;;22.35;89.81;101597.03;5061214;28;20049;-64
2023/08/18 08:53:32;;;;;;;4.30;3.63;;;21.90;99.90;;;22.00;90.08;101600.28;5061479;28;20049;-64
2023/08/18 08:56:03;;;;;;;5.43;4.95;;;21.70;99.90;;;21.83;90.60;101568.63;5062076;28;20124;-64
2023/08/18 08:58:37;;;;;;;3.45;3.30;;;21.60;99.90;;;21.62;90.59;101485.97;5064243;28;20044;-64
2023/08/18 09:01:06;;;;;;;3.33;3.22;;;21.90;99.90;;;22.19;89.47;101588.72;5060954;28;20086;-64
2023/08/18 09:03:36;;;;;;;3.80;3.55;;;21.90;99.90;;;22.35;89.76;101595.22;5063424;28;20044;-63
2023/08/18 09:06:06;;;;;;;3.95;3.65;;;22.00;99.90;;;22.48;90.52;101600.09;5061998;28;20053;-66
2023/08/18 09:08:36;;;;;;;10.55;6.03;;;22.10;99.90;;;21.95;90.30;101592.38;5062372;28;20063;-66
2023/08/18 09:11:05;;;;;;;12.55;6.68;;;21.70;99.90;;;21.63;92.30;101597.22;5062887;28;20045;-65
2023/08/18 09:13:34;;;;;;;7.05;5.50;;;21.40;99.90;;;21.62;94.06;101585.59;5061471;28;20123;-66
2023/08/18 09:16:06;;;;;;;6.00;5.45;;;21.30;99.90;;;21.94;93.81;101557.41;5064099;28;20056;-65
2023/08/18 09:18:35;;;;;;;5.60;5.10;;;21.60;99.90;;;22.35;92.06;101579.06;5060615;28;20041;-65
2023/08/18 09:21:06;;;;;;;11.63;6.88;;;21.90;99.90;;;22.19;91.50;101572.53;5063388;28;20052;-65
2023/08/18 09:23:34;;;;;;;14.73;6.85;;;21.90;99.90;;;21.90;91.89;101586.31;5059284;28;20056;-66
2023/08/18 09:26:04;;;;;;;9.60;6.22;;;21.60;99.90;;;21.80;93.25;101586.69;5062176;28;20053;-66
2023/08/18 09:28:33;;;;;;;10.93;6.25;;;21.50;99.90;;;22.02;93.06;101574.16;5063544;28;20041;-66
2023/08/18 09:31:03;;;;;;;10.35;7.68;;;21.60;99.90;;;22.00;92.57;101587.69;5065019;28;20131;-63
2023/08/18 09:33:31;;;;;;;11.90;6.53;;;21.60;99.90;;;21.95;93.14;101591.53;5067799;28;20044;-63
2023/08/18 09:36:01;;;;;;;;;;;21.60;99.90;;;21.84;93.60;101594.63;5064535;28;20041;-63
2023/08/18 09:38:40;;;;;;;3.72;3.42;;;21.50;99.90;;;21.86;94.54;101581.09;5067834;28;19924;-63
2023/08/18 09:41:09;;;;;;;7.00;6.40;;;21.50;99.90;;;21.95;92.54;101575.34;5066556;28;20394;-63
2023/08/18 09:43:38;;;;;;;4.53;4.15;;;21.70;99.90;;;21.67;93.40;101577.31;5065286;28;20098;-63
2023/08/18 09:46:08;;;;;;;6.93;6.35;;;21.40;99.90;;;22.13;94.29;101575.47;5066950;28;20509;-63
2023/08/18 09:48:38;;;;;;;3.55;3.35;;;21.70;99.90;;;21.98;93.21;101559.06;5064247;28;20528;-63
2023/08/18 09:51:09;;;;;;;6.03;4.47;;;21.70;99.90;;;22.17;93.16;101579.81;5071429;28;20568;-63
2023/08/18 09:53:50;;;;;;;11.02;6.57;;;21.90;99.90;;;21.99;93.13;101568.91;5055718;28;20784;-63
2023/08/18 09:56:26;;;;;;;4.30;3.90;;;21.70;99.90;;;21.92;92.87;101573.66;5055908;28;20052;-64
2023/08/18 09:59:04;;;;;;;4.38;4.07;;;21.60;99.90;;;22.11;94.79;101563.88;5064099;28;20045;-63
2023/08/18 10:01:36;;;;;;;6.68;4.55;;;21.70;99.90;;;22.16;94.80;101559.16;5065206;28;20045;-63
2023/08/18 10:04:06;;;;;;;6.05;5.55;;;21.80;99.90;;;22.22;93.74;101555.38;5066532;28;20041;-63
2023/08/18 10:06:36;;;;;;;7.60;5.35;;;21.90;99.90;;;22.55;93.65;101571.94;5070736;28;20045;-64
2023/08/18 10:09:06;;;;;;;14.20;6.80;;;22.10;99.90;;;22.49;91.65;101543.44;5079070;28;20132;-63
2023/08/18 10:11:36;;;;;;;3.70;3.38;;;22.20;99.90;;;22.79;91.08;101555.59;5066429;28;20044;-63
2023/08/18 10:14:21;;;;;;;3.60;3.40;;;22.40;99.90;;;22.92;89.31;101561.31;5067505;28;20458;-63
2023/08/18 10:16:52;;;;;;;4.18;3.90;;;22.60;99.90;;;23.11;88.37;101546.09;5055300;28;20110;-63
2023/08/18 10:19:49;;;;;;;10.05;6.93;;;22.80;99.90;;;22.97;89.62;101540.44;5055173;28;20491;-63
2023/08/18 10:22:19;;;;;;;10.95;6.38;;;22.70;99.90;;;22.70;89.68;101541.63;5063195;28;20056;-63